sensor_id;sensor_type;location;lat;lon;timestamp;pressure;altitude;pressure_sealevel;temperature;humidity
47636;BME280;33364;50.766;15.338;2023-02-13T00:01:12;96811.06;;;1.67;80.55
47636;BME280;33364;50.766;15.338;2023-02-13T00:03:38;96811.59;;;1.71;80.86
47636;BME280;33364;50.766;15.338;2023-02-13T00:06:04;96811.75;;;1.69;80.41
47636;BME280;33364;50.766;15.338;2023-02-13T00:08:30;96808.47;;;1.57;80.90
47636;BME280;33364;50.766;15.338;2023-02-13T00:10:56;96814.63;;;1.66;81.52
47636;BME280;33364;50.766;15.338;2023-02-13T00:13:22;96812.03;;;1.66;80.53
47636;BME280;33364;50.766;15.338;2023-02-13T00:15:58;96813.84;;;1.56;80.19
47636;BME280;33364;50.766;15.338;2023-02-13T00:18:25;96800.59;;;1.57;80.97
47636;BME280;33364;50.766;15.338;2023-02-13T00:21:12;96807.19;;;1.61;80.71
47636;BME280;33364;50.766;15.338;2023-02-13T00:23:38;96806.94;;;1.55;80.50
47636;BME280;33364;50.766;15.338;2023-02-13T00:26:10;96803.75;;;1.61;81.61
47636;BME280;33364;50.766;15.338;2023-02-13T00:28:36;96807.03;;;1.73;81.23
47636;BME280;33364;50.766;15.338;2023-02-13T00:33:29;96813.50;;;1.78;81.12
47636;BME280;33364;50.766;15.338;2023-02-13T00:36:11;96813.94;;;1.74;79.93
47636;BME280;33364;50.766;15.338;2023-02-13T00:38:38;96808.69;;;1.74;80.17
47636;BME280;33364;50.766;15.338;2023-02-13T00:41:05;96813.53;;;1.69;80.23
47636;BME280;33364;50.766;15.338;2023-02-13T00:43:32;96814.38;;;1.59;80.26
47636;BME280;33364;50.766;15.338;2023-02-13T00:45:58;96803.75;;;1.61;80.76
47636;BME280;33364;50.766;15.338;2023-02-13T00:48:24;96810.22;;;1.67;81.11
47636;BME280;33364;50.766;15.338;2023-02-13T00:50:51;96807.59;;;1.67;80.55
47636;BME280;33364;50.766;15.338;2023-02-13T00:53:20;96807.03;;;1.73;81.00
47636;BME280;33364;50.766;15.338;2023-02-13T00:55:46;96811.19;;;1.75;81.01
47636;BME280;33364;50.766;15.338;2023-02-13T00:58:13;96805.50;;;1.80;80.42
47636;BME280;33364;50.766;15.338;2023-02-13T01:00:39;96802.19;;;1.78;80.00
47636;BME280;33364;50.766;15.338;2023-02-13T01:03:05;96806.22;;;1.72;80.16
47636;BME280;33364;50.766;15.338;2023-02-13T01:05:31;96803.06;;;1.69;80.89
47636;BME280;33364;50.766;15.338;2023-02-13T01:07:57;96809.81;;;1.61;80.77
47636;BME280;33364;50.766;15.338;2023-02-13T01:10:24;96813.44;;;1.60;81.20
47636;BME280;33364;50.766;15.338;2023-02-13T01:12:50;96806.53;;;1.59;80.32
47636;BME280;33364;50.766;15.338;2023-02-13T01:15:16;96804.19;;;1.56;80.83
47636;BME280;33364;50.766;15.338;2023-02-13T01:17:41;96808.19;;;1.60;80.44
47636;BME280;33364;50.766;15.338;2023-02-13T01:20:09;96810.94;;;1.59;80.04
47636;BME280;33364;50.766;15.338;2023-02-13T01:22:35;96810.66;;;1.62;79.94
47636;BME280;33364;50.766;15.338;2023-02-13T01:25:01;96805.44;;;1.52;79.90
47636;BME280;33364;50.766;15.338;2023-02-13T01:27:27;96804.31;;;1.55;80.71
47636;BME280;33364;50.766;15.338;2023-02-13T01:29:54;96806.66;;;1.58;80.63
47636;BME280;33364;50.766;15.338;2023-02-13T01:32:20;96806.53;;;1.59;80.36
47636;BME280;33364;50.766;15.338;2023-02-13T01:34:46;96801.53;;;1.66;80.57
47636;BME280;33364;50.766;15.338;2023-02-13T01:37:12;96802.78;;;1.72;80.55
47636;BME280;33364;50.766;15.338;2023-02-13T01:39:39;96801.00;;;1.62;79.45
47636;BME280;33364;50.766;15.338;2023-02-13T01:42:08;96790.94;;;1.58;80.09
47636;BME280;33364;50.766;15.338;2023-02-13T01:44:51;96786.09;;;1.63;80.38
47636;BME280;33364;50.766;15.338;2023-02-13T01:50:02;96788.78;;;1.81;80.62
47636;BME280;33364;50.766;15.338;2023-02-13T01:52:30;96794.44;;;1.86;79.94
47636;BME280;33364;50.766;15.338;2023-02-13T01:54:56;96797.91;;;1.87;79.76
47636;BME280;33364;50.766;15.338;2023-02-13T01:57:24;96795.69;;;1.82;79.50
47636;BME280;33364;50.766;15.338;2023-02-13T02:00:05;96794.59;;;1.75;79.75
47636;BME280;33364;50.766;15.338;2023-02-13T02:02:35;96795.19;;;1.69;79.85
47636;BME280;33364;50.766;15.338;2023-02-13T02:05:03;96796.28;;;1.66;79.57
47636;BME280;33364;50.766;15.338;2023-02-13T02:07:30;96793.97;;;1.63;79.69
47636;BME280;33364;50.766;15.338;2023-02-13T02:10:00;96794.66;;;1.55;80.27
47636;BME280;33364;50.766;15.338;2023-02-13T02:12:39;96794.38;;;1.58;80.42
47636;BME280;33364;50.766;15.338;2023-02-13T02:15:07;96797.00;;;1.58;80.47
47636;BME280;33364;50.766;15.338;2023-02-13T02:17:33;96788.03;;;1.61;80.44
47636;BME280;33364;50.766;15.338;2023-02-13T02:31:38;96788.59;;;1.55;79.74
47636;BME280;33364;50.766;15.338;2023-02-13T02:34:16;96792.00;;;1.65;79.94
47636;BME280;33364;50.766;15.338;2023-02-13T02:42:06;96779.66;;;1.57;80.26
47636;BME280;33364;50.766;15.338;2023-02-13T02:52:58;96774.09;;;1.70;80.12
47636;BME280;33364;50.766;15.338;2023-02-13T02:58:25;96779.47;;;1.69;79.52
47636;BME280;33364;50.766;15.338;2023-02-13T03:01:17;96772.59;;;1.58;79.80
47636;BME280;33364;50.766;15.338;2023-02-13T03:04:03;96770.41;;;1.53;80.15
47636;BME280;33364;50.766;15.338;2023-02-13T03:06:52;96773.56;;;1.57;80.17
47636;BME280;33364;50.766;15.338;2023-02-13T03:09:25;96779.75;;;1.65;80.96
47636;BME280;33364;50.766;15.338;2023-02-13T03:12:13;96775.06;;;1.69;79.77
47636;BME280;33364;50.766;15.338;2023-02-13T03:15:00;96785.56;;;1.59;80.05
47636;BME280;33364;50.766;15.338;2023-02-13T03:17:26;96779.03;;;1.73;80.76
47636;BME280;33364;50.766;15.338;2023-02-13T03:23:22;96777.53;;;1.71;80.27
47636;BME280;33364;50.766;15.338;2023-02-13T03:26:04;96781.38;;;1.67;79.82
47636;BME280;33364;50.766;15.338;2023-02-13T03:28:44;96782.00;;;1.60;79.82
47636;BME280;33364;50.766;15.338;2023-02-13T03:31:46;96784.00;;;1.67;79.70
47636;BME280;33364;50.766;15.338;2023-02-13T03:34:19;96778.91;;;1.65;80.02
47636;BME280;33364;50.766;15.338;2023-02-13T03:36:56;96780.31;;;1.59;79.71
47636;BME280;33364;50.766;15.338;2023-02-13T03:40:04;96779.50;;;1.59;80.06
47636;BME280;33364;50.766;15.338;2023-02-13T03:43:16;96781.13;;;1.60;80.02
47636;BME280;33364;50.766;15.338;2023-02-13T03:45:44;96789.41;;;1.65;80.32
47636;BME280;33364;50.766;15.338;2023-02-13T03:48:22;96780.56;;;1.66;79.87
47636;BME280;33364;50.766;15.338;2023-02-13T03:51:09;96779.91;;;1.64;79.96
47636;BME280;33364;50.766;15.338;2023-02-13T03:53:39;96793.25;;;1.71;80.46
47636;BME280;33364;50.766;15.338;2023-02-13T03:56:08;96788.84;;;1.71;79.72
47636;BME280;33364;50.766;15.338;2023-02-13T03:58:55;96793.53;;;1.68;80.45
47636;BME280;33364;50.766;15.338;2023-02-13T04:02:02;96787.91;;;1.62;79.65
47636;BME280;33364;50.766;15.338;2023-02-13T04:04:38;96791.59;;;1.70;80.71
47636;BME280;33364;50.766;15.338;2023-02-13T04:07:11;96785.56;;;1.59;79.50
47636;BME280;33364;50.766;15.338;2023-02-13T04:10:03;96781.91;;;1.42;79.86
47636;BME280;33364;50.766;15.338;2023-02-13T04:13:08;96778.47;;;1.22;80.47
47636;BME280;33364;50.766;15.338;2023-02-13T04:16:02;96781.81;;;1.24;81.86
47636;BME280;33364;50.766;15.338;2023-02-13T04:18:31;96781.22;;;1.31;81.75
47636;BME280;33364;50.766;15.338;2023-02-13T04:21:03;96778.84;;;1.37;81.23
47636;BME280;33364;50.766;15.338;2023-02-13T04:23:29;96778.28;;;1.43;81.19
47636;BME280;33364;50.766;15.338;2023-02-13T04:25:56;96780.63;;;1.46;81.04
47636;BME280;33364;50.766;15.338;2023-02-13T04:28:22;96782.84;;;1.51;81.58
47636;BME280;33364;50.766;15.338;2023-02-13T04:30:48;96778.53;;;1.60;81.63
47636;BME280;33364;50.766;15.338;2023-02-13T04:33:17;96782.94;;;1.59;80.77
47636;BME280;33364;50.766;15.338;2023-02-13T04:35:43;96782.44;;;1.46;81.17
47636;BME280;33364;50.766;15.338;2023-02-13T04:38:08;96772.63;;;1.48;80.87
47636;BME280;33364;50.766;15.338;2023-02-13T04:40:34;96770.13;;;1.56;81.57
47636;BME280;33364;50.766;15.338;2023-02-13T04:43:00;96775.13;;;1.50;81.00
47636;BME280;33364;50.766;15.338;2023-02-13T04:45:26;96767.53;;;1.46;80.97
47636;BME280;33364;50.766;15.338;2023-02-13T04:47:53;96771.41;;;1.42;80.37
47636;BME280;33364;50.766;15.338;2023-02-13T04:50:20;96766.47;;;1.39;80.79
47636;BME280;33364;50.766;15.338;2023-02-13T04:52:45;96765.72;;;1.47;80.79
47636;BME280;33364;50.766;15.338;2023-02-13T04:55:11;96767.53;;;1.46;80.74
47636;BME280;33364;50.766;15.338;2023-02-13T04:57:37;96775.81;;;1.42;80.82
47636;BME280;33364;50.766;15.338;2023-02-13T05:00:05;96780.91;;;1.43;81.39
47636;BME280;33364;50.766;15.338;2023-02-13T05:02:31;96768.22;;;1.49;81.28
47636;BME280;33364;50.766;15.338;2023-02-13T05:04:57;96770.56;;;1.52;80.73
47636;BME280;33364;50.766;15.338;2023-02-13T05:07:22;96775.66;;;1.53;80.90
47636;BME280;33364;50.766;15.338;2023-02-13T05:09:48;96779.94;;;1.54;80.47
47636;BME280;33364;50.766;15.338;2023-02-13T05:12:14;96779.25;;;1.52;80.50
47636;BME280;33364;50.766;15.338;2023-02-13T05:14:40;96780.63;;;1.46;80.58
47636;BME280;33364;50.766;15.338;2023-02-13T05:17:06;96784.53;;;1.42;80.97
47636;BME280;33364;50.766;15.338;2023-02-13T05:19:31;96777.63;;;1.41;80.85
47636;BME280;33364;50.766;15.338;2023-02-13T05:21:57;96781.06;;;1.32;80.50
47636;BME280;33364;50.766;15.338;2023-02-13T05:24:41;96779.03;;;1.36;81.25
47636;BME280;33364;50.766;15.338;2023-02-13T05:27:07;96780.38;;;1.40;81.13
47636;BME280;33364;50.766;15.338;2023-02-13T05:29:33;96778.84;;;1.37;80.88
47636;BME280;33364;50.766;15.338;2023-02-13T05:31:59;96779.69;;;1.48;81.96
47636;BME280;33364;50.766;15.338;2023-02-13T05:34:26;96777.97;;;1.56;81.07
47636;BME280;33364;50.766;15.338;2023-02-13T05:36:53;96779.66;;;1.57;81.16
47636;BME280;33364;50.766;15.338;2023-02-13T05:39:19;96770.81;;;1.58;80.68
47636;BME280;33364;50.766;15.338;2023-02-13T05:41:45;96771.94;;;1.56;80.56
47636;BME280;33364;50.766;15.338;2023-02-13T05:44:12;96766.84;;;1.54;80.47
47636;BME280;33364;50.766;15.338;2023-02-13T05:46:40;96771.41;;;1.52;80.14
47636;BME280;33364;50.766;15.338;2023-02-13T05:49:07;96778.41;;;1.52;80.98
47636;BME280;33364;50.766;15.338;2023-02-13T05:51:32;96769.16;;;1.57;80.84
47636;BME280;33364;50.766;15.338;2023-02-13T05:53:58;96767.50;;;1.56;80.74
47636;BME280;33364;50.766;15.338;2023-02-13T05:56:24;96766.84;;;1.54;80.52
47636;BME280;33364;50.766;15.338;2023-02-13T05:58:51;96767.91;;;1.61;81.85
47636;BME280;33364;50.766;15.338;2023-02-13T06:01:17;96775.09;;;1.59;80.51
47636;BME280;33364;50.766;15.338;2023-02-13T06:03:43;96767.78;;;1.53;80.77
47636;BME280;33364;50.766;15.338;2023-02-13T06:06:09;96771.41;;;1.52;80.61
47636;BME280;33364;50.766;15.338;2023-02-13T06:08:35;96774.16;;;1.51;80.59
47636;BME280;33364;50.766;15.338;2023-02-13T06:11:02;96773.44;;;1.49;80.76
47636;BME280;33364;50.766;15.338;2023-02-13T06:13:29;96779.81;;;1.46;80.59
47636;BME280;33364;50.766;15.338;2023-02-13T06:15:55;96775.66;;;1.53;80.79
47636;BME280;33364;50.766;15.338;2023-02-13T06:18:21;96773.69;;;1.55;80.43
47636;BME280;33364;50.766;15.338;2023-02-13T06:20:47;96783.50;;;1.53;80.56
47636;BME280;33364;50.766;15.338;2023-02-13T06:23:14;96779.13;;;1.54;80.59
47636;BME280;33364;50.766;15.338;2023-02-13T06:25:40;96786.66;;;1.57;80.72
47636;BME280;33364;50.766;15.338;2023-02-13T06:28:06;96778.41;;;1.52;80.22
47636;BME280;33364;50.766;15.338;2023-02-13T06:30:32;96786.41;;;1.50;80.75
47636;BME280;33364;50.766;15.338;2023-02-13T06:32:58;96794.66;;;1.55;80.61
47636;BME280;33364;50.766;15.338;2023-02-13T06:35:25;96800.88;;;1.54;79.78
47636;BME280;33364;50.766;15.338;2023-02-13T06:37:51;96803.94;;;1.50;79.98
47636;BME280;33364;50.766;15.338;2023-02-13T06:40:17;96793.31;;;1.51;80.72
47636;BME280;33364;50.766;15.338;2023-02-13T06:42:44;96791.47;;;1.61;81.46
47636;BME280;33364;50.766;15.338;2023-02-13T06:45:10;96790.81;;;1.59;80.50
47636;BME280;33364;50.766;15.338;2023-02-13T06:47:42;96786.66;;;1.57;80.39
47636;BME280;33364;50.766;15.338;2023-02-13T06:50:08;96790.53;;;1.62;80.35
47636;BME280;33364;50.766;15.338;2023-02-13T06:52:35;96795.91;;;1.61;80.36
47636;BME280;33364;50.766;15.338;2023-02-13T06:55:00;96803.91;;;1.59;80.03
47636;BME280;33364;50.766;15.338;2023-02-13T06:57:26;96802.53;;;1.55;80.30
47636;BME280;33364;50.766;15.338;2023-02-13T06:59:54;96800.88;;;1.54;80.54
47636;BME280;33364;50.766;15.338;2023-02-13T07:02:20;96794.09;;;1.61;80.58
47636;BME280;33364;50.766;15.338;2023-02-13T07:04:45;96796.72;;;1.61;80.85
47636;BME280;33364;50.766;15.338;2023-02-13T07:07:11;96796.56;;;1.73;81.35
47636;BME280;33364;50.766;15.338;2023-02-13T07:09:37;96794.22;;;1.70;80.25
47636;BME280;33364;50.766;15.338;2023-02-13T07:12:04;96795.59;;;1.74;80.58
47636;BME280;33364;50.766;15.338;2023-02-13T07:14:29;96798.75;;;1.77;80.81
47636;BME280;33364;50.766;15.338;2023-02-13T07:16:56;96799.56;;;1.78;80.42
47636;BME280;33364;50.766;15.338;2023-02-13T07:19:22;96801.91;;;1.81;80.79
47636;BME280;33364;50.766;15.338;2023-02-13T07:21:47;96805.91;;;1.85;80.62
47636;BME280;33364;50.766;15.338;2023-02-13T07:24:13;96799.13;;;1.82;80.41
47636;BME280;33364;50.766;15.338;2023-02-13T07:26:39;96800.38;;;1.88;80.39
47636;BME280;33364;50.766;15.338;2023-02-13T07:29:04;96802.16;;;1.88;79.53
47636;BME280;33364;50.766;15.338;2023-02-13T07:31:34;96797.84;;;1.96;81.90
47636;BME280;33364;50.766;15.338;2023-02-13T07:34:00;96800.28;;;2.08;80.91
47636;BME280;33364;50.766;15.338;2023-02-13T07:36:27;96804.25;;;2.12;81.06
47636;BME280;33364;50.766;15.338;2023-02-13T07:38:52;96801.72;;;2.20;80.56
47636;BME280;33364;50.766;15.338;2023-02-13T07:41:19;96803.59;;;2.10;79.35
47636;BME280;33364;50.766;15.338;2023-02-13T07:43:45;96799.69;;;2.14;79.70
47636;BME280;33364;50.766;15.338;2023-02-13T07:46:10;96802.03;;;2.17;81.24
47636;BME280;33364;50.766;15.338;2023-02-13T07:48:36;96795.81;;;2.18;80.40
47636;BME280;33364;50.766;15.338;2023-02-13T07:51:03;96803.16;;;2.14;79.83
47636;BME280;33364;50.766;15.338;2023-02-13T07:53:29;96801.91;;;2.09;79.77
47636;BME280;33364;50.766;15.338;2023-02-13T07:55:55;96804.69;;;2.07;79.83
47636;BME280;33364;50.766;15.338;2023-02-13T07:58:21;96800.81;;;2.11;79.78
47636;BME280;33364;50.766;15.338;2023-02-13T08:00:47;96805.22;;;2.11;79.86
47636;BME280;33364;50.766;15.338;2023-02-13T08:03:13;96800.97;;;2.10;79.80
47636;BME280;33364;50.766;15.338;2023-02-13T08:05:39;96802.06;;;2.07;79.92
47636;BME280;33364;50.766;15.338;2023-02-13T08:08:05;96800.28;;;2.08;80.43
47636;BME280;33364;50.766;15.338;2023-02-13T08:10:31;96799.91;;;2.20;80.38
47636;BME280;33364;50.766;15.338;2023-02-13T08:13:16;96802.69;;;2.19;79.96
47636;BME280;33364;50.766;15.338;2023-02-13T08:15:42;96802.88;;;2.17;79.77
47636;BME280;33364;50.766;15.338;2023-02-13T08:18:11;96797.63;;;2.17;79.51
47636;BME280;33364;50.766;15.338;2023-02-13T08:20:37;96796.50;;;2.20;79.84
47636;BME280;33364;50.766;15.338;2023-02-13T08:23:05;96808.78;;;2.19;79.98
47636;BME280;33364;50.766;15.338;2023-02-13T08:25:32;96804.94;;;2.14;79.43
47636;BME280;33364;50.766;15.338;2023-02-13T08:27:59;96800.63;;;2.23;80.17
47636;BME280;33364;50.766;15.338;2023-02-13T08:30:25;96799.41;;;2.17;79.54
47636;BME280;33364;50.766;15.338;2023-02-13T08:32:51;96789.44;;;2.20;80.51
47636;BME280;33364;50.766;15.338;2023-02-13T08:35:17;96792.28;;;2.27;80.54
47636;BME280;33364;50.766;15.338;2023-02-13T08:37:42;96791.19;;;2.30;79.94
47636;BME280;33364;50.766;15.338;2023-02-13T08:40:08;96786.47;;;2.33;79.90
47636;BME280;33364;50.766;15.338;2023-02-13T08:42:36;96788.78;;;2.36;80.27
47636;BME280;33364;50.766;15.338;2023-02-13T08:45:02;96787.31;;;2.34;80.25
47636;BME280;33364;50.766;15.338;2023-02-13T08:47:28;96782.16;;;2.42;80.33
47636;BME280;33364;50.766;15.338;2023-02-13T08:49:54;96780.94;;;2.54;80.14
47636;BME280;33364;50.766;15.338;2023-02-13T08:52:20;96785.31;;;2.64;80.18
47636;BME280;33364;50.766;15.338;2023-02-13T08:54:46;96789.66;;;2.73;79.75
47636;BME280;33364;50.766;15.338;2023-02-13T08:57:11;96790.66;;;2.72;79.49
47636;BME280;33364;50.766;15.338;2023-02-13T08:59:37;96795.75;;;2.73;79.27
47636;BME280;33364;50.766;15.338;2023-02-13T09:02:03;96794.59;;;2.76;79.64
47636;BME280;33364;50.766;15.338;2023-02-13T09:04:29;96794.81;;;2.83;79.86
47636;BME280;33364;50.766;15.338;2023-02-13T09:06:54;96793.34;;;2.98;80.11
47636;BME280;33364;50.766;15.338;2023-02-13T09:09:20;96798.66;;;3.06;79.38
47636;BME280;33364;50.766;15.338;2023-02-13T09:11:46;96795.38;;;3.04;78.55
47636;BME280;33364;50.766;15.338;2023-02-13T09:14:12;96799.09;;;3.02;78.50
47636;BME280;33364;50.766;15.338;2023-02-13T09:16:37;96807.22;;;2.90;79.31
47636;BME280;33364;50.766;15.338;2023-02-13T09:19:03;96815.91;;;2.91;79.37
47636;BME280;33364;50.766;15.338;2023-02-13T09:21:29;96807.44;;;2.97;79.59
47636;BME280;33364;50.766;15.338;2023-02-13T09:23:56;96809.09;;;2.98;79.64
47636;BME280;33364;50.766;15.338;2023-02-13T09:26:21;96808.78;;;3.01;79.36
47636;BME280;33364;50.766;15.338;2023-02-13T09:28:47;96814.25;;;3.08;79.04
47636;BME280;33364;50.766;15.338;2023-02-13T09:31:16;96811.78;;;3.06;79.07
47636;BME280;33364;50.766;15.338;2023-02-13T09:33:43;96821.00;;;3.10;79.72
47636;BME280;33364;50.766;15.338;2023-02-13T09:36:12;96815.22;;;3.07;78.89
47636;BME280;33364;50.766;15.338;2023-02-13T09:38:40;96811.63;;;3.08;78.97
47636;BME280;33364;50.766;15.338;2023-02-13T09:41:14;96814.63;;;3.13;78.82
47636;BME280;33364;50.766;15.338;2023-02-13T09:43:59;96809.28;;;3.23;79.27
47636;BME280;33364;50.766;15.338;2023-02-13T09:46:36;96809.81;;;3.26;78.87
47636;BME280;33364;50.766;15.338;2023-02-13T09:49:10;96817.53;;;3.28;78.55
47636;BME280;33364;50.766;15.338;2023-02-13T09:51:37;96819.56;;;3.34;78.67
47636;BME280;33364;50.766;15.338;2023-02-13T09:54:07;96813.16;;;3.37;79.73
47636;BME280;33364;50.766;15.338;2023-02-13T09:56:50;96822.91;;;3.44;80.43
47636;BME280;33364;50.766;15.338;2023-02-13T10:03:00;96812.38;;;3.62;80.45
47636;BME280;33364;50.766;15.338;2023-02-13T10:05:55;96809.88;;;3.61;79.58
47636;BME280;33364;50.766;15.338;2023-02-13T10:11:12;96814.94;;;3.54;79.48
47636;BME280;33364;50.766;15.338;2023-02-13T10:16:52;96813.31;;;3.53;79.53
47636;BME280;33364;50.766;15.338;2023-02-13T10:21:57;96816.41;;;3.75;78.55
47636;BME280;33364;50.766;15.338;2023-02-13T10:24:37;96810.88;;;3.86;78.87
47636;BME280;33364;50.766;15.338;2023-02-13T10:32:56;96813.75;;;4.01;77.66
47636;BME280;33364;50.766;15.338;2023-02-13T10:35:49;96819.97;;;4.00;77.41
47636;BME280;33364;50.766;15.338;2023-02-13T10:38:19;96814.72;;;4.00;77.94
47636;BME280;33364;50.766;15.338;2023-02-13T10:46:35;96801.06;;;3.96;78.19
47636;BME280;33364;50.766;15.338;2023-02-13T10:51:44;96812.69;;;3.94;77.66
47636;BME280;33364;50.766;15.338;2023-02-13T10:54:17;96814.09;;;4.06;79.13
47636;BME280;33364;50.766;15.338;2023-02-13T10:57:12;96807.16;;;4.05;77.96
47636;BME280;33364;50.766;15.338;2023-02-13T11:02:38;96792.69;;;4.01;76.68
47636;BME280;33364;50.766;15.338;2023-02-13T11:05:16;96799.63;;;4.10;77.04
47636;BME280;33364;50.766;15.338;2023-02-13T11:07:46;96794.41;;;4.18;77.04
47636;BME280;33364;50.766;15.338;2023-02-13T11:10:19;96794.41;;;4.18;77.19
47636;BME280;33364;50.766;15.338;2023-02-13T11:12:46;96793.63;;;4.26;76.82
47636;BME280;33364;50.766;15.338;2023-02-13T11:15:25;96794.28;;;4.28;76.83
47636;BME280;33364;50.766;15.338;2023-02-13T11:17:56;96779.63;;;4.26;76.77
47636;BME280;33364;50.766;15.338;2023-02-13T11:22:54;96781.63;;;4.23;76.57
47636;BME280;33364;50.766;15.338;2023-02-13T11:25:25;96772.88;;;4.23;76.44
47636;BME280;33364;50.766;15.338;2023-02-13T11:28:09;96776.31;;;4.15;76.87
47636;BME280;33364;50.766;15.338;2023-02-13T11:30:41;96777.63;;;4.19;76.91
47636;BME280;33364;50.766;15.338;2023-02-13T11:33:23;96771.41;;;4.20;76.86
47636;BME280;33364;50.766;15.338;2023-02-13T11:36:13;96773.34;;;4.18;76.74
47636;BME280;33364;50.766;15.338;2023-02-13T11:38:39;96770.22;;;4.15;77.30
47636;BME280;33364;50.766;15.338;2023-02-13T11:41:17;96776.94;;;4.09;77.05
47636;BME280;33364;50.766;15.338;2023-02-13T11:43:48;96778.69;;;4.00;76.34
47636;BME280;33364;50.766;15.338;2023-02-13T11:46:19;96773.13;;;4.03;76.85
47636;BME280;33364;50.766;15.338;2023-02-13T11:49:00;96773.66;;;4.07;76.93
47636;BME280;33364;50.766;15.338;2023-02-13T11:51:45;96770.31;;;3.97;76.69
47636;BME280;33364;50.766;15.338;2023-02-13T11:56:55;96765.09;;;4.05;77.29
47636;BME280;33364;50.766;15.338;2023-02-13T11:59:22;96764.63;;;4.10;76.00
47636;BME280;33364;50.766;15.338;2023-02-13T12:02:15;96759.88;;;4.21;76.23
47636;BME280;33364;50.766;15.338;2023-02-13T12:04:41;96764.97;;;4.23;76.52
47636;BME280;33364;50.766;15.338;2023-02-13T12:07:25;96753.81;;;4.21;75.94
47636;BME280;33364;50.766;15.338;2023-02-13T12:09:58;96757.59;;;3.84;76.26
47636;BME280;33364;50.766;15.338;2023-02-13T12:15:27;96760.66;;;4.06;76.60
47636;BME280;33364;50.766;15.338;2023-02-13T12:18:05;96757.53;;;4.10;77.05
47636;BME280;33364;50.766;15.338;2023-02-13T12:26:36;96746.38;;;4.16;76.03
47636;BME280;33364;50.766;15.338;2023-02-13T12:29:36;96740.97;;;4.18;76.33
47636;BME280;33364;50.766;15.338;2023-02-13T12:32:19;96739.16;;;4.18;76.10
47636;BME280;33364;50.766;15.338;2023-02-13T12:34:59;96745.06;;;4.12;76.26
47636;BME280;33364;50.766;15.338;2023-02-13T12:40:38;96738.13;;;4.03;75.88
47636;BME280;33364;50.766;15.338;2023-02-13T12:43:29;96721.41;;;4.12;75.62
47636;BME280;33364;50.766;15.338;2023-02-13T12:47:02;96725.03;;;4.19;75.41
47636;BME280;33364;50.766;15.338;2023-02-13T12:54:30;96724.34;;;4.09;74.56
47636;BME280;33364;50.766;15.338;2023-02-13T12:57:35;96720.22;;;4.07;74.43
47636;BME280;33364;50.766;15.338;2023-02-13T13:16:26;96718.84;;;3.86;75.78
47636;BME280;33364;50.766;15.338;2023-02-13T13:19:15;96732.47;;;3.81;76.50
47636;BME280;33364;50.766;15.338;2023-02-13T13:27:10;96731.75;;;3.71;76.55
47636;BME280;33364;50.766;15.338;2023-02-13T13:29:43;96727.00;;;3.75;77.01
47636;BME280;33364;50.766;15.338;2023-02-13T13:32:16;96734.09;;;3.82;77.19
47636;BME280;33364;50.766;15.338;2023-02-13T13:34:44;96734.00;;;3.66;75.58
47636;BME280;33364;50.766;15.338;2023-02-13T13:37:33;96732.88;;;3.68;76.54
47636;BME280;33364;50.766;15.338;2023-02-13T13:42:59;96735.66;;;3.67;76.82
47636;BME280;33364;50.766;15.338;2023-02-13T13:45:34;96744.47;;;3.58;75.65
47636;BME280;33364;50.766;15.338;2023-02-13T13:50:55;96737.28;;;3.60;76.96
47636;BME280;33364;50.766;15.338;2023-02-13T13:53:21;96737.31;;;3.68;77.22
47636;BME280;33364;50.766;15.338;2023-02-13T14:01:20;96737.84;;;3.72;76.69
47636;BME280;33364;50.766;15.338;2023-02-13T14:03:48;96736.16;;;3.71;76.78
47636;BME280;33364;50.766;15.338;2023-02-13T14:06:21;96741.28;;;3.72;76.49
47636;BME280;33364;50.766;15.338;2023-02-13T14:11:32;96723.75;;;3.55;76.66
47636;BME280;33364;50.766;15.338;2023-02-13T14:13:59;96732.91;;;3.42;77.95
47636;BME280;33364;50.766;15.338;2023-02-13T14:16:43;96726.69;;;3.43;78.05
47636;BME280;33364;50.766;15.338;2023-02-13T14:19:27;96726.50;;;3.45;77.69
47636;BME280;33364;50.766;15.338;2023-02-13T14:21:54;96725.34;;;3.39;76.90
47636;BME280;33364;50.766;15.338;2023-02-13T14:24:39;96733.53;;;3.36;77.05
47636;BME280;33364;50.766;15.338;2023-02-13T14:27:20;96727.88;;;3.23;76.47
47636;BME280;33364;50.766;15.338;2023-02-13T14:29:47;96723.28;;;3.25;76.77
47636;BME280;33364;50.766;15.338;2023-02-13T14:34:59;96718.06;;;3.33;77.39
47636;BME280;33364;50.766;15.338;2023-02-13T14:37:31;96722.97;;;3.28;77.67
47636;BME280;33364;50.766;15.338;2023-02-13T14:42:41;96718.22;;;3.31;77.70
47636;BME280;33364;50.766;15.338;2023-02-13T14:45:17;96723.78;;;3.28;77.65
47636;BME280;33364;50.766;15.338;2023-02-13T14:47:52;96725.59;;;3.28;77.43
47636;BME280;33364;50.766;15.338;2023-02-13T14:50:28;96727.66;;;3.16;76.91
47636;BME280;33364;50.766;15.338;2023-02-13T14:52:58;96721.59;;;3.16;76.89
47636;BME280;33364;50.766;15.338;2023-02-13T14:55:34;96713.00;;;3.13;77.21
47636;BME280;33364;50.766;15.338;2023-02-13T14:58:34;96711.69;;;3.09;78.65
47636;BME280;33364;50.766;15.338;2023-02-13T15:01:02;96707.34;;;3.00;77.51
47636;BME280;33364;50.766;15.338;2023-02-13T15:03:36;96705.28;;;3.12;78.18
47636;BME280;33364;50.766;15.338;2023-02-13T15:06:23;96711.09;;;3.16;77.68
47636;BME280;33364;50.766;15.338;2023-02-13T15:08:51;96706.28;;;3.11;77.28
47636;BME280;33364;50.766;15.338;2023-02-13T15:11:39;96705.59;;;3.09;77.59
47636;BME280;33364;50.766;15.338;2023-02-13T15:14:30;96707.66;;;2.97;76.75
47636;BME280;33364;50.766;15.338;2023-02-13T15:17:12;96712.38;;;2.93;77.96
47636;BME280;33364;50.766;15.338;2023-02-13T15:19:45;96718.47;;;2.94;78.90
47636;BME280;33364;50.766;15.338;2023-02-13T15:22:34;96713.06;;;2.96;78.90
47636;BME280;33364;50.766;15.338;2023-02-13T15:25:00;96701.88;;;2.93;78.78
47636;BME280;33364;50.766;15.338;2023-02-13T15:27:28;96694.31;;;2.90;78.21
47636;BME280;33364;50.766;15.338;2023-02-13T15:32:31;96704.41;;;3.03;78.42
47636;BME280;33364;50.766;15.338;2023-02-13T15:34:57;96705.63;;;2.91;77.55